Time,TemperatureF,DewpointF,PressureIn,WindDirection,WindDirectionDegrees,WindSpeedMPH,WindSpeedGustMPH,Humidity,HourlyPrecipIn,Conditions,Clouds,dailyrainin,SolarRadiationWatts/m^2,SoftwareType,DateUTC
2013-08-29 00:12:00,68.0,48.0,-100.00,East,84,3.0,7.0,48,0.00,,,0.00,0.000000,,2013-08-29 06:12:00,
2013-08-29 00:22:00,68.0,48.0,-100.00,East,84,3.0,7.0,48,0.00,,,0.00,0.000000,,2013-08-29 06:22:00,
2013-08-29 00:32:00,68.0,48.0,-100.00,East,84,3.0,7.0,48,0.00,,,0.00,0.000000,,2013-08-29 06:32:00,
2013-08-29 00:43:00,68.0,48.0,-100.00,East,84,3.0,7.0,48,0.00,,,0.00,0.000000,,2013-08-29 06:43:00,
2013-08-29 01:12:00,68.0,49.0,-100.00,East,84,4.0,6.0,51,0.00,,,0.00,0.000000,,2013-08-29 07:12:00,
2013-08-29 01:21:00,68.0,49.0,-100.00,East,84,4.0,6.0,51,0.00,,,0.00,0.000000,,2013-08-29 07:21:00,
2013-08-29 01:32:00,68.0,49.0,-100.00,East,84,4.0,6.0,51,0.00,,,0.00,0.000000,,2013-08-29 07:32:00,
2013-08-29 01:42:00,68.0,49.0,-100.00,East,84,4.0,6.0,51,0.00,,,0.00,0.000000,,2013-08-29 07:42:00,
2013-08-29 02:12:00,66.0,51.0,-100.00,ESE,112,4.0,7.0,59,0.00,,,0.00,0.000000,,2013-08-29 08:12:00,
2013-08-29 02:22:00,66.0,51.0,-100.00,ESE,112,4.0,7.0,59,0.00,,,0.00,0.000000,,2013-08-29 08:22:00,
2013-08-29 02:32:00,66.0,51.0,-100.00,ESE,112,4.0,7.0,59,0.00,,,0.00,0.000000,,2013-08-29 08:32:00,
2013-08-29 02:42:00,66.0,51.0,-100.00,ESE,112,4.0,7.0,59,0.00,,,0.00,0.000000,,2013-08-29 08:42:00,
2013-08-29 03:12:00,64.0,46.0,-100.00,East,88,4.0,6.0,52,0.00,,,0.00,0.000000,,2013-08-29 09:12:00,
2013-08-29 03:21:00,64.0,46.0,-100.00,East,88,4.0,6.0,52,0.00,,,0.00,0.000000,,2013-08-29 09:21:00,
2013-08-29 03:34:00,64.0,46.0,-100.00,East,88,4.0,6.0,52,0.00,,,0.00,0.000000,,2013-08-29 09:34:00,
2013-08-29 03:43:00,64.0,46.0,-100.00,East,88,4.0,6.0,52,0.00,,,0.00,0.000000,,2013-08-29 09:43:00,
2013-08-29 04:14:00,66.0,48.0,-100.00,East,92,3.0,6.0,52,0.00,,,0.00,0.000000,,2013-08-29 10:14:00,
2013-08-29 04:24:00,66.0,48.0,-100.00,East,92,3.0,6.0,52,0.00,,,0.00,0.000000,,2013-08-29 10:24:00,
2013-08-29 04:33:00,66.0,48.0,-100.00,East,92,3.0,6.0,52,0.00,,,0.00,0.000000,,2013-08-29 10:33:00,
2013-08-29 04:43:00,66.0,48.0,-100.00,East,92,3.0,6.0,52,0.00,,,0.00,0.000000,,2013-08-29 10:43:00,
2013-08-29 05:12:00,66.0,49.0,-100.00,East,80,3.0,6.0,55,0.00,,,0.00,0.000000,,2013-08-29 11:12:00,
2013-08-29 05:22:00,66.0,49.0,-100.00,East,80,3.0,6.0,55,0.00,,,0.00,0.000000,,2013-08-29 11:22:00,
2013-08-29 05:32:00,66.0,49.0,-100.00,East,80,3.0,6.0,55,0.00,,,0.00,0.000000,,2013-08-29 11:32:00,
2013-08-29 06:11:00,65.0,48.0,-100.00,East,100,4.0,8.0,55,-99.99,,,0.00,0.000000,,2013-08-29 12:11:00,
2013-08-29 06:22:00,65.0,48.0,-100.00,East,100,4.0,8.0,55,-99.99,,,0.00,0.000000,,2013-08-29 12:22:00,
2013-08-29 06:32:00,65.0,48.0,-100.00,East,100,4.0,8.0,55,-99.99,,,0.00,0.000000,,2013-08-29 12:32:00,
2013-08-29 06:42:00,65.0,48.0,-100.00,East,100,4.0,8.0,55,-99.99,,,0.00,0.000000,,2013-08-29 12:42:00,
2013-08-29 07:12:00,64.0,49.0,-100.00,East,94,4.0,8.0,58,0.00,,,0.00,0.000000,,2013-08-29 13:12:00,
2013-08-29 07:22:00,64.0,49.0,-100.00,East,94,4.0,8.0,58,0.00,,,0.00,0.000000,,2013-08-29 13:22:00,
2013-08-29 07:31:00,64.0,49.0,-100.00,East,94,4.0,8.0,58,0.00,,,0.00,0.000000,,2013-08-29 13:31:00,
2013-08-29 07:42:00,64.0,49.0,-100.00,East,94,4.0,8.0,58,0.00,,,0.00,0.000000,,2013-08-29 13:42:00,
2013-08-29 08:11:00,63.0,44.0,-100.00,ESE,107,4.0,8.0,50,0.00,,,0.00,0.000000,,2013-08-29 14:11:00,
2013-08-29 08:21:00,63.0,44.0,-100.00,ESE,107,4.0,8.0,50,0.00,,,0.00,0.000000,,2013-08-29 14:21:00,
2013-08-29 08:31:00,63.0,44.0,-100.00,ESE,107,4.0,8.0,50,0.00,,,0.00,0.000000,,2013-08-29 14:31:00,
2013-08-29 08:42:00,63.0,44.0,-100.00,ESE,107,4.0,8.0,50,0.00,,,0.00,0.000000,,2013-08-29 14:42:00,
2013-08-29 09:12:00,66.0,44.0,-100.00,ESE,113,3.0,7.0,45,0.00,,,0.00,2.000000,,2013-08-29 15:12:00,
2013-08-29 09:21:00,66.0,44.0,-100.00,ESE,113,3.0,7.0,45,0.00,,,0.00,2.000000,,2013-08-29 15:21:00,
2013-08-29 09:33:00,66.0,44.0,-100.00,ESE,113,3.0,7.0,45,0.00,,,0.00,2.000000,,2013-08-29 15:33:00,
2013-08-29 09:43:00,66.0,44.0,-100.00,ESE,113,3.0,7.0,45,0.00,,,0.00,2.000000,,2013-08-29 15:43:00,
2013-08-29 10:13:00,72.0,47.0,-100.00,SW,220,5.0,7.0,41,0.00,,,0.00,118.000000,,2013-08-29 16:13:00,
2013-08-29 10:24:00,72.0,47.0,-100.00,SW,220,5.0,7.0,41,0.00,,,0.00,118.000000,,2013-08-29 16:24:00,
2013-08-29 10:34:00,72.0,47.0,-100.00,SW,220,5.0,7.0,41,0.00,,,0.00,118.000000,,2013-08-29 16:34:00,
2013-08-29 10:43:00,72.0,47.0,-100.00,SW,220,5.0,7.0,41,0.00,,,0.00,118.000000,,2013-08-29 16:43:00,
2013-08-29 11:22:00,78.0,51.0,-100.00,SW,218,4.0,10.0,39,0.00,,,-99.99,354.000000,,2013-08-29 17:22:00,
2013-08-29 11:34:00,78.0,51.0,-100.00,SW,218,4.0,10.0,39,0.00,,,-99.99,354.000000,,2013-08-29 17:34:00,
2013-08-29 11:43:00,78.0,51.0,-100.00,SW,218,4.0,10.0,39,0.00,,,-99.99,354.000000,,2013-08-29 17:43:00,
2013-08-29 12:12:00,78.0,47.0,-100.00,WSW,255,2.0,10.0,34,0.00,,,0.00,548.000000,,2013-08-29 18:12:00,
2013-08-29 12:21:00,78.0,47.0,-100.00,WSW,255,2.0,10.0,34,0.00,,,0.00,548.000000,,2013-08-29 18:21:00,
2013-08-29 12:32:00,78.0,47.0,-100.00,WSW,255,2.0,10.0,34,0.00,,,0.00,548.000000,,2013-08-29 18:32:00,
2013-08-29 12:42:00,78.0,47.0,-100.00,WSW,255,2.0,10.0,34,0.00,,,0.00,548.000000,,2013-08-29 18:42:00,
2013-08-29 13:11:00,82.0,52.0,-100.00,West,279,5.0,8.0,35,0.00,,,0.00,515.000000,,2013-08-29 19:11:00,
2013-08-29 13:22:00,82.0,52.0,-100.00,West,279,5.0,8.0,35,0.00,,,0.00,515.000000,,2013-08-29 19:22:00,
2013-08-29 13:32:00,82.0,52.0,-100.00,West,279,5.0,8.0,35,0.00,,,0.00,515.000000,,2013-08-29 19:32:00,
2013-08-29 13:42:00,82.0,52.0,-100.00,West,279,5.0,8.0,35,0.00,,,0.00,515.000000,,2013-08-29 19:42:00,
2013-08-29 14:12:00,80.0,46.0,-100.00,WNW,291,5.0,10.0,30,0.00,,,0.00,769.000000,,2013-08-29 20:12:00,
2013-08-29 14:21:00,80.0,46.0,-100.00,WNW,291,5.0,10.0,30,0.00,,,0.00,769.000000,,2013-08-29 20:21:00,
2013-08-29 14:32:00,80.0,46.0,-100.00,WNW,291,5.0,10.0,30,0.00,,,0.00,769.000000,,2013-08-29 20:32:00,
2013-08-29 14:42:00,80.0,46.0,-100.00,WNW,291,5.0,10.0,30,0.00,,,0.00,769.000000,,2013-08-29 20:42:00,
2013-08-29 15:12:00,85.0,47.0,-100.00,SSE,168,3.0,10.0,27,0.00,,,0.00,662.000000,,2013-08-29 21:12:00,
2013-08-29 15:22:00,85.0,47.0,-100.00,SSE,168,3.0,10.0,27,0.00,,,0.00,662.000000,,2013-08-29 21:22:00,
2013-08-29 15:33:00,85.0,47.0,-100.00,SSE,168,3.0,10.0,27,0.00,,,0.00,662.000000,,2013-08-29 21:33:00,
2013-08-29 15:43:00,85.0,47.0,-100.00,SSE,168,3.0,10.0,27,0.00,,,0.00,662.000000,,2013-08-29 21:43:00,
2013-08-29 16:24:00,88.0,50.0,-100.00,West,263,7.0,9.0,27,0.00,,,0.00,995.000000,,2013-08-29 22:24:00,
2013-08-29 16:33:00,88.0,50.0,-100.00,West,263,7.0,9.0,27,0.00,,,0.00,995.000000,,2013-08-29 22:33:00,
2013-08-29 16:43:00,88.0,50.0,-100.00,West,263,7.0,9.0,27,0.00,,,0.00,995.000000,,2013-08-29 22:43:00,
2013-08-29 17:13:00,88.0,48.0,-100.00,West,280,6.0,14.0,25,0.00,,,0.00,1167.000000,,2013-08-29 23:13:00,
2013-08-29 17:22:00,88.0,48.0,-100.00,West,280,6.0,14.0,25,0.00,,,0.00,1167.000000,,2013-08-29 23:22:00,
2013-08-29 17:33:00,88.0,48.0,-100.00,West,280,6.0,14.0,25,0.00,,,0.00,1167.000000,,2013-08-29 23:33:00,
2013-08-29 17:42:00,88.0,48.0,-100.00,West,280,6.0,14.0,25,0.00,,,0.00,1167.000000,,2013-08-29 23:42:00,
2013-08-29 18:12:00,87.0,49.0,-100.00,North,9,7.0,14.0,27,0.00,,,0.00,934.000000,,2013-08-30 00:12:00,
2013-08-29 18:21:00,87.0,49.0,-100.00,North,9,7.0,14.0,27,0.00,,,0.00,934.000000,,2013-08-30 00:21:00,
2013-08-29 18:32:00,87.0,49.0,-100.00,North,9,7.0,14.0,27,0.00,,,0.00,934.000000,,2013-08-30 00:32:00,
2013-08-29 19:12:00,87.0,50.0,-100.00,NE,47,5.0,15.0,28,-99.99,,,0.00,824.000000,,2013-08-30 01:12:00,
2013-08-29 21:12:00,76.0,52.0,-100.00,ENE,62,4.0,10.0,44,-99.99,,,0.00,368.000000,,2013-08-30 03:12:00,
2013-08-29 21:22:00,76.0,52.0,-100.00,ENE,62,4.0,10.0,44,-99.99,,,0.00,368.000000,,2013-08-30 03:22:00,
2013-08-29 21:34:00,76.0,52.0,-100.00,ENE,62,4.0,10.0,44,-99.99,,,0.00,368.000000,,2013-08-30 03:34:00,
2013-08-29 21:43:00,76.0,52.0,-100.00,ENE,62,4.0,10.0,44,-99.99,,,0.00,368.000000,,2013-08-30 03:43:00,
2013-08-29 21:44:00,71.0,49.0,-100.00,NE,38,2.0,9.0,45,0.00,,,0.00,0.000000,,2013-08-30 03:44:00,
2013-08-29 22:14:00,71.0,49.0,-100.00,NE,38,2.0,9.0,45,0.00,,,0.00,0.000000,,2013-08-30 04:14:00,
2013-08-29 22:24:00,71.0,49.0,-100.00,NE,38,2.0,9.0,45,0.00,,,0.00,0.000000,,2013-08-30 04:24:00,
2013-08-29 22:33:00,71.0,49.0,-100.00,NE,38,2.0,9.0,45,0.00,,,0.00,0.000000,,2013-08-30 04:33:00,
2013-08-29 23:12:00,70.0,46.0,-100.00,East,87,3.0,11.0,43,0.00,,,-99.99,0.000000,,2013-08-30 05:12:00,
2013-08-29 23:23:00,70.0,46.0,-100.00,East,87,3.0,11.0,43,0.00,,,-99.99,0.000000,,2013-08-30 05:23:00,
2013-08-29 23:34:00,70.0,46.0,-100.00,East,87,3.0,11.0,43,0.00,,,-99.99,0.000000,,2013-08-30 05:34:00,
2013-08-29 23:42:00,70.0,46.0,-100.00,East,87,3.0,11.0,43,0.00,,,-99.99,0.000000,,2013-08-30 05:42:00,